createdAt,value
2022-08-05T00:01:00.994Z,100556.94
2022-08-05T00:04:23.731Z,100558.78
2022-08-05T00:07:59.957Z,100555.34
2022-08-05T00:10:52.872Z,100560.03
2022-08-05T00:13:56.196Z,100551.00
2022-08-05T00:17:01.825Z,100559.44
2022-08-05T00:20:07.087Z,100559.00
2022-08-05T00:23:12.598Z,100551.00
2022-08-05T00:26:17.108Z,100553.84
2022-08-05T00:29:22.420Z,100550.16
2022-08-05T00:32:28.216Z,100542.81
2022-08-05T00:35:33.236Z,100545.66
2022-08-05T00:38:40.641Z,100551.78
2022-08-05T00:41:51.739Z,100547.69
2022-08-05T00:44:58.370Z,100545.22
2022-08-05T00:48:05.960Z,100546.44
2022-08-05T00:51:51.504Z,100540.66
2022-08-05T00:54:33.844Z,100540.44
2022-08-05T00:57:55.477Z,100542.06
2022-08-05T01:01:00.163Z,100544.31
2022-08-05T01:04:04.012Z,100551.69
2022-08-05T01:07:15.012Z,100565.59
2022-08-05T01:10:28.979Z,100575.00
2022-08-05T01:13:59.010Z,100565.56
2022-08-05T01:17:08.084Z,100560.63
2022-08-05T01:20:27.517Z,100565.72
2022-08-05T01:23:52.991Z,100568.78
2022-08-05T01:27:17.889Z,100571.66
2022-08-05T01:30:39.103Z,100574.50
2022-08-05T01:33:51.908Z,100569.97
2022-08-05T01:37:03.952Z,100561.91
2022-08-05T01:40:10.591Z,100560.91
2022-08-05T01:43:21.935Z,100561.28
2022-08-05T01:46:42.466Z,100571.09
2022-08-05T01:50:01.494Z,100568.19
2022-08-05T01:53:11.258Z,100555.47
2022-08-05T01:58:18.879Z,100560.13
2022-08-05T01:59:42.069Z,100552.78
2022-08-05T02:02:57.562Z,100560.91
2022-08-05T02:06:03.550Z,100566.38
2022-08-05T02:09:29.800Z,100553.09
2022-08-05T02:12:51.034Z,100553.03
2022-08-05T02:16:02.830Z,100558.44
2022-08-05T02:19:14.935Z,100555.88
2022-08-05T02:22:25.811Z,100546.47
2022-08-05T02:25:49.092Z,100560.16
2022-08-05T02:28:54.473Z,100550.56
2022-08-05T02:31:59.198Z,100553.00
2022-08-05T02:35:14.553Z,100550.59
2022-08-05T02:38:25.408Z,100560.38
2022-08-05T02:41:36.441Z,100562.63
2022-08-05T02:44:58.289Z,100562.25
2022-08-05T02:48:11.710Z,100562.00
2022-08-05T02:51:18.350Z,100559.53
2022-08-05T02:54:37.173Z,100564.09
2022-08-05T02:58:09.164Z,100557.91
2022-08-05T03:01:05.856Z,100563.63
2022-08-05T03:04:14.568Z,100554.41
2022-08-05T03:08:00.821Z,100561.19
2022-08-05T03:11:50.051Z,100566.06
2022-08-05T03:14:13.449Z,100556.59
2022-08-05T03:17:16.797Z,100551.84
2022-08-05T03:20:19.823Z,100541.09
2022-08-05T03:23:25.742Z,100544.72
2022-08-05T03:26:31.123Z,100533.44
2022-08-05T03:29:45.972Z,100542.69
2022-08-05T03:33:00.825Z,100541.88
2022-08-05T03:36:06.726Z,100538.56
2022-08-05T03:39:26.635Z,100536.31
2022-08-05T03:42:32.787Z,100535.28
2022-08-05T03:45:58.215Z,100524.75
2022-08-05T03:49:02.221Z,100535.16
2022-08-05T03:52:36.992Z,100541.09
2022-08-05T03:56:06.027Z,100544.75
2022-08-05T03:59:09.263Z,100549.25
2022-08-05T04:02:17.387Z,100546.38
2022-08-05T04:05:40.213Z,100543.88
2022-08-05T04:08:45.015Z,100550.06
2022-08-05T04:11:53.018Z,100550.91
2022-08-05T04:14:57.703Z,100550.31
2022-08-05T04:18:07.229Z,100550.50
2022-08-05T04:21:12.544Z,100541.56
2022-08-05T04:24:35.718Z,100543.53
2022-08-05T04:27:43.882Z,100537.41
2022-08-05T04:31:01.553Z,100527.63
2022-08-05T04:34:19.697Z,100527.84
2022-08-05T04:37:31.579Z,100527.66
2022-08-05T04:40:51.337Z,100537.09
2022-08-05T04:43:56.107Z,100546.59
2022-08-05T04:47:09.162Z,100553.31
2022-08-05T04:50:37.257Z,100561.13
2022-08-05T04:53:47.498Z,100564.41
2022-08-05T04:56:50.599Z,100557.91
2022-08-05T05:00:01.209Z,100565.09
2022-08-05T05:03:04.724Z,100569.63
2022-08-05T05:06:39.152Z,100573.53
2022-08-05T05:09:34.658Z,100564.53
2022-08-05T05:12:40.561Z,100571.06
2022-08-05T05:15:57.895Z,100567.59
2022-08-05T05:19:18.608Z,100565.59
2022-08-05T05:22:27.044Z,100571.13
2022-08-05T05:25:40.577Z,100577.06
2022-08-05T05:28:45.137Z,100575.06
2022-08-05T05:31:49.665Z,100575.44
2022-08-05T05:34:54.196Z,100582.50
2022-08-05T05:38:01.661Z,100599.72
2022-08-05T05:41:07.549Z,100626.34
2022-08-05T05:44:36.955Z,100631.50
2022-08-05T05:48:06.831Z,100637.84
2022-08-05T05:51:14.993Z,100644.00
2022-08-05T05:54:19.685Z,100623.56
2022-08-05T05:57:22.936Z,100608.38
2022-08-05T06:00:31.510Z,100633.97
2022-08-05T06:03:53.605Z,100655.09
2022-08-05T06:07:01.425Z,100665.94
2022-08-05T06:10:10.147Z,100684.63
2022-08-05T06:13:13.691Z,100692.19
2022-08-05T06:16:29.347Z,100685.06
2022-08-05T06:19:36.642Z,100680.97
2022-08-05T06:22:40.485Z,100697.81
2022-08-05T06:26:12.309Z,100701.75
2022-08-05T06:29:42.789Z,100718.31
2022-08-05T06:32:29.938Z,100724.25
2022-08-05T06:36:07.270Z,100719.94
2022-08-05T06:38:57.880Z,100713.81
2022-08-05T06:42:04.176Z,100705.88
2022-08-05T06:45:09.641Z,100690.91
2022-08-05T06:48:50.373Z,100686.38
2022-08-05T06:51:48.233Z,100689.84
2022-08-05T06:54:53.300Z,100694.16
2022-08-05T06:58:03.446Z,100696.16
2022-08-05T07:01:21.024Z,100695.16
2022-08-05T07:04:24.827Z,100702.81
2022-08-05T07:07:35.496Z,100699.91
2022-08-05T07:10:53.467Z,100696.88
2022-08-05T07:14:20.027Z,100711.00
2022-08-05T07:17:58.538Z,100705.22
2022-08-05T07:20:46.784Z,100707.69
2022-08-05T07:23:52.370Z,100716.06
2022-08-05T07:26:55.575Z,100743.13
2022-08-05T07:30:24.410Z,100753.19
2022-08-05T07:33:36.544Z,100768.41
2022-08-05T07:36:40.769Z,100753.19
2022-08-05T07:40:04.063Z,100753.75
2022-08-05T07:43:20.190Z,100756.66
2022-08-05T07:46:26.041Z,100755.44
2022-08-05T07:49:29.501Z,100749.09
2022-08-05T07:52:32.481Z,100752.00
2022-08-05T07:56:05.218Z,100746.72
2022-08-05T07:58:59.823Z,100756.75
2022-08-05T08:02:03.349Z,100748.31
2022-08-05T08:05:07.227Z,100745.44
2022-08-05T08:08:15.171Z,100739.31
2022-08-05T08:11:19.711Z,100756.56
2022-08-05T08:14:30.816Z,100760.25
2022-08-05T08:17:35.263Z,100743.03
2022-08-05T08:21:00.371Z,100749.22
2022-08-05T08:24:04.946Z,100746.34
2022-08-05T08:27:09.997Z,100731.56
2022-08-05T08:30:27.677Z,100718.38
2022-08-05T08:33:38.290Z,100712.66
2022-08-05T08:36:48.856Z,100731.13
2022-08-05T08:39:57.956Z,100737.72
2022-08-05T08:45:16.101Z,100753.75
2022-08-05T08:46:31.393Z,100766.25
2022-08-05T08:50:05.720Z,100789.00
2022-08-05T08:53:07.847Z,100786.75
2022-08-05T08:56:15.711Z,100774.22
2022-08-05T08:59:27.619Z,100763.78
2022-08-05T09:02:37.115Z,100781.00
2022-08-05T09:06:08.010Z,100795.13
2022-08-05T09:09:06.365Z,100794.63
2022-08-05T09:12:20.396Z,100777.34
2022-08-05T09:15:25.863Z,100789.63
2022-08-05T09:18:30.056Z,100787.81
2022-08-05T09:22:22.594Z,100801.00
2022-08-05T09:25:00.803Z,100808.03
2022-08-05T09:28:16.471Z,100810.25
2022-08-05T09:32:42.204Z,100804.94
2022-08-05T09:34:50.723Z,100802.91
2022-08-05T09:38:12.289Z,100811.94
2022-08-05T09:41:18.836Z,100824.63
2022-08-05T09:44:35.881Z,100832.22
2022-08-05T09:47:56.295Z,100822.59
2022-08-05T09:51:01.764Z,100830.00
2022-08-05T09:54:08.483Z,100823.88
2022-08-05T09:57:29.555Z,100825.91
2022-08-05T10:00:38.709Z,100794.69
2022-08-05T10:04:00.128Z,100785.63
2022-08-05T10:07:06.139Z,100778.47
2022-08-05T10:10:28.179Z,100760.97
2022-08-05T10:13:47.435Z,100755.28
2022-08-05T10:16:53.425Z,100747.28
2022-08-05T10:20:04.317Z,100720.31
2022-08-05T10:23:34.691Z,100717.47
2022-08-05T10:26:51.266Z,100737.22
2022-08-05T10:30:06.317Z,100764.09
2022-08-05T10:33:18.968Z,100742.59
2022-08-05T10:36:26.027Z,100780.19
2022-08-05T10:39:59.180Z,100823.88
2022-08-05T10:43:14.886Z,100818.75
2022-08-05T10:46:21.357Z,100797.81
2022-08-05T10:49:33.447Z,100768.03
2022-08-05T10:52:58.728Z,100751.56
2022-08-05T10:56:21.311Z,100724.25
2022-08-05T11:00:02.766Z,100707.63
2022-08-05T11:03:24.858Z,100695.72
2022-08-05T11:06:31.084Z,100696.16
2022-08-05T11:09:46.868Z,100678.94
2022-08-05T11:12:55.322Z,100691.44
2022-08-05T11:16:33.966Z,100686.78
2022-08-05T11:20:10.871Z,100689.47
2022-08-05T11:24:05.750Z,100719.22
2022-08-05T11:27:51.491Z,100757.69
2022-08-05T11:31:58.457Z,100822.06
2022-08-05T11:34:55.318Z,100834.63
2022-08-05T11:38:28.945Z,100844.44
2022-08-05T11:41:58.090Z,100836.41
2022-08-05T11:44:53.832Z,100837.06
2022-08-05T11:47:58.872Z,100847.81
2022-08-05T11:51:03.040Z,100846.78
2022-08-05T11:54:07.143Z,100845.97
2022-08-05T11:57:25.516Z,100845.38
2022-08-05T12:00:32.591Z,100845.50
2022-08-05T12:03:44.572Z,100847.22
2022-08-05T12:07:01.779Z,100848.50
2022-08-05T12:10:09.634Z,100840.88
2022-08-05T12:13:47.667Z,100832.53
2022-08-05T12:16:47.191Z,100845.78
2022-08-05T12:20:27.240Z,100834.16
2022-08-05T12:23:16.653Z,100847.06
2022-08-05T12:26:19.936Z,100847.44
2022-08-05T12:29:25.448Z,100848.81
2022-08-05T12:32:32.361Z,100852.59
2022-08-05T12:35:37.153Z,100841.75
2022-08-05T12:38:43.317Z,100833.88
2022-08-05T12:41:47.594Z,100837.28
2022-08-05T12:44:51.787Z,100846.75
2022-08-05T12:48:01.552Z,100842.25
2022-08-05T12:52:10.511Z,100854.59
2022-08-05T12:54:45.711Z,100854.41
2022-08-05T12:58:52.426Z,100857.34
2022-08-05T13:02:03.682Z,100845.84
2022-08-05T13:04:54.304Z,100845.09
2022-08-05T13:08:00.252Z,100849.06
2022-08-05T13:11:04.437Z,100847.66
2022-08-05T13:14:20.369Z,100840.66
2022-08-05T13:17:41.437Z,100837.41
2022-08-05T13:20:46.805Z,100844.34
2022-08-05T13:23:50.537Z,100844.81
2022-08-05T13:26:55.348Z,100851.41
2022-08-05T13:30:34.474Z,100841.22
2022-08-05T13:34:21.361Z,100851.25
2022-08-05T13:36:46.758Z,100848.97
2022-08-05T13:40:15.212Z,100839.56
2022-08-05T13:43:22.168Z,100846.00
2022-08-05T13:46:50.744Z,100839.50
2022-08-05T13:49:52.374Z,100841.72
2022-08-05T13:52:56.792Z,100852.34
2022-08-05T13:56:02.257Z,100840.88
2022-08-05T13:59:05.988Z,100842.69
2022-08-05T14:02:26.580Z,100847.97
2022-08-05T14:06:24.820Z,100845.38
2022-08-05T14:08:57.002Z,100847.25
2022-08-05T14:12:17.271Z,100843.50
2022-08-05T14:16:04.718Z,100839.03
2022-08-05T14:18:43.959Z,100839.78
2022-08-05T14:22:08.794Z,100846.63
2022-08-05T14:25:19.224Z,100853.28
2022-08-05T14:28:26.697Z,100864.72
2022-08-05T14:31:54.232Z,100861.25
2022-08-05T14:34:53.744Z,100868.59
2022-08-05T14:37:57.976Z,100866.22
2022-08-05T14:41:07.862Z,100876.72
2022-08-05T14:44:20.612Z,100868.34
2022-08-05T14:48:04.093Z,100860.47
2022-08-05T14:50:48.744Z,100858.69
2022-08-05T14:54:25.925Z,100867.25
2022-08-05T14:57:17.703Z,100873.41
2022-08-05T15:00:21.402Z,100870.28
2022-08-05T15:03:34.124Z,100872.38
2022-08-05T15:06:42.262Z,100874.09
2022-08-05T15:09:54.541Z,100857.47
2022-08-05T15:13:03.736Z,100862.16
2022-08-05T15:16:07.636Z,100859.84
2022-08-05T15:19:23.381Z,100856.06
2022-08-05T15:22:28.222Z,100856.34
2022-08-05T15:25:51.006Z,100866.69
2022-08-05T15:28:56.217Z,100871.19
2022-08-05T15:32:03.267Z,100859.97
2022-08-05T15:35:10.716Z,100864.13
2022-08-05T15:38:35.663Z,100878.56
2022-08-05T15:41:58.121Z,100872.81
2022-08-05T15:45:02.999Z,100878.53
2022-08-05T15:48:09.891Z,100874.47
2022-08-05T15:51:22.406Z,100875.88
2022-08-05T15:54:46.324Z,100890.47
2022-08-05T15:57:49.616Z,100898.91
2022-08-05T16:01:12.009Z,100894.59
2022-08-05T16:04:18.109Z,100897.06
2022-08-05T16:07:21.260Z,100886.00
2022-08-05T16:10:26.875Z,100897.47
2022-08-05T16:13:34.217Z,100899.53
2022-08-05T16:16:39.662Z,100930.72
2022-08-05T16:20:04.220Z,100910.38
2022-08-05T16:23:08.459Z,100914.22
2022-08-05T16:26:12.813Z,100910.91
2022-08-05T16:29:15.856Z,100917.69
2022-08-05T16:32:29.097Z,100926.53
2022-08-05T16:35:34.624Z,100934.06
2022-08-05T16:38:54.418Z,100942.81
2022-08-05T16:42:27.858Z,100963.28
2022-08-05T16:46:03.824Z,100964.84
2022-08-05T16:48:45.775Z,100980.31
2022-08-05T16:51:50.961Z,100984.06
2022-08-05T16:54:54.519Z,100978.72
2022-08-05T16:58:01.444Z,100962.66
2022-08-05T17:01:07.087Z,100965.50
2022-08-05T17:04:14.932Z,100971.59
2022-08-05T17:07:38.961Z,100971.25
2022-08-05T17:10:41.690Z,100976.03
2022-08-05T17:13:45.897Z,100980.34
2022-08-05T17:16:49.398Z,100994.00
2022-08-05T17:19:58.226Z,101007.16
2022-08-05T17:23:01.227Z,101014.13
2022-08-05T17:26:05.804Z,101024.78
2022-08-05T17:29:10.223Z,101016.25
2022-08-05T17:32:17.063Z,101029.06
2022-08-05T17:35:22.546Z,101046.50
2022-08-05T17:38:25.540Z,101047.66
2022-08-05T17:42:19.890Z,101049.09
2022-08-05T17:44:53.012Z,101055.09
2022-08-05T17:47:56.473Z,101064.06
2022-08-05T17:51:00.885Z,101076.41
2022-08-05T17:54:04.119Z,101084.06
2022-08-05T17:57:12.057Z,101111.63
2022-08-05T18:00:16.005Z,101124.97
2022-08-05T18:06:45.729Z,101120.72
2022-08-05T18:09:59.739Z,101137.81
2022-08-05T18:13:07.571Z,101117.75
2022-08-05T18:16:15.367Z,101140.78
2022-08-05T18:19:26.045Z,101132.97
2022-08-05T18:22:45.907Z,101134.63
2022-08-05T18:25:57.492Z,101136.31
2022-08-05T18:29:02.296Z,101135.63
2022-08-05T18:32:06.972Z,101148.88
2022-08-05T18:35:16.943Z,101143.41
2022-08-05T18:38:26.444Z,101153.81
2022-08-05T18:41:58.088Z,101165.75
2022-08-05T18:44:56.612Z,101170.53
2022-08-05T18:48:00.279Z,101168.00
2022-08-05T18:52:06.034Z,101164.19
2022-08-05T18:54:45.778Z,101174.91
2022-08-05T18:57:52.665Z,101186.00
2022-08-05T19:00:56.756Z,101184.44
2022-08-05T19:03:59.740Z,101188.91
2022-08-05T19:07:03.119Z,101201.63
2022-08-05T19:10:11.857Z,101205.63
2022-08-05T19:13:15.999Z,101215.03
2022-08-05T19:16:25.094Z,101217.13
2022-08-05T19:19:32.275Z,101208.72
2022-08-05T19:22:37.250Z,101230.72
2022-08-05T19:25:44.450Z,101242.66
2022-08-05T19:28:47.420Z,101243.97
2022-08-05T19:31:51.503Z,101255.53
2022-08-05T19:34:55.767Z,101261.03
2022-08-05T19:38:06.711Z,101266.53
2022-08-05T19:41:13.054Z,101274.97
2022-08-05T19:44:16.216Z,101282.91
2022-08-05T19:47:19.695Z,101289.75
2022-08-05T19:50:22.748Z,101287.59
2022-08-05T19:54:04.453Z,101295.16
2022-08-05T19:56:53.888Z,101299.38
2022-08-05T20:00:02.392Z,101301.56
2022-08-05T20:03:15.066Z,101322.59
2022-08-05T20:06:28.705Z,101306.69
2022-08-05T20:09:54.503Z,101305.31
2022-08-05T20:12:56.958Z,101307.72
2022-08-05T20:15:59.954Z,101319.19
2022-08-05T20:19:03.377Z,101323.88
2022-08-05T20:22:06.544Z,101322.59
2022-08-05T20:25:12.831Z,101321.63
2022-08-05T20:28:17.204Z,101332.16
2022-08-05T20:31:28.433Z,101332.81
2022-08-05T20:34:44.987Z,101341.47
2022-08-05T20:38:05.832Z,101349.38
2022-08-05T20:41:10.969Z,101365.53
2022-08-05T20:44:30.583Z,101370.63
2022-08-05T20:47:34.152Z,101375.75
2022-08-05T20:50:45.527Z,101381.84
2022-08-05T20:53:56.727Z,101394.13
2022-08-05T20:57:00.321Z,101397.78
2022-08-05T21:00:41.523Z,101403.00
2022-08-05T21:03:35.033Z,101413.56
2022-08-05T21:06:45.035Z,101416.41
2022-08-05T21:09:53.825Z,101427.16
2022-08-05T21:13:08.268Z,101425.34
2022-08-05T21:16:15.634Z,101426.47
2022-08-05T21:19:19.076Z,101428.81
2022-08-05T21:22:24.017Z,101429.13
2022-08-05T21:25:33.844Z,101427.31
2022-08-05T21:28:37.379Z,101429.88
2022-08-05T21:31:42.865Z,101422.34
2022-08-05T21:34:45.914Z,101408.44
2022-08-05T21:38:08.918Z,101418.47
2022-08-05T21:41:12.020Z,101418.50
2022-08-05T21:44:15.485Z,101421.28
2022-08-05T21:47:54.942Z,101419.19
2022-08-05T21:50:54.114Z,101419.31
2022-08-05T21:53:59.631Z,101409.31
2022-08-05T21:57:30.799Z,101406.31
2022-08-05T22:00:30.962Z,101419.31
2022-08-05T22:03:52.139Z,101424.50
2022-08-05T22:06:57.088Z,101425.47
2022-08-05T22:10:00.495Z,101423.50
2022-08-05T22:13:09.200Z,101413.13
2022-08-05T22:16:42.148Z,101403.25
2022-08-05T22:20:00.579Z,101421.03
2022-08-05T22:23:24.468Z,101420.88
2022-08-05T22:26:49.821Z,101440.75
2022-08-05T22:29:54.310Z,101433.53
2022-08-05T22:32:57.349Z,101431.59
2022-08-05T22:36:02.462Z,101440.06
2022-08-05T22:39:09.598Z,101435.91
2022-08-05T22:42:25.364Z,101440.88
2022-08-05T22:45:30.680Z,101442.69
2022-08-05T22:48:34.228Z,101442.00
2022-08-05T22:52:05.527Z,101444.78
2022-08-05T22:55:04.462Z,101438.81
2022-08-05T22:58:28.152Z,101434.50
2022-08-05T23:02:05.081Z,101442.72
2022-08-05T23:04:55.109Z,101449.25
2022-08-05T23:07:59.606Z,101456.88
2022-08-05T23:11:02.739Z,101465.28
2022-08-05T23:14:05.805Z,101461.53
2022-08-05T23:17:34.887Z,101465.72
2022-08-05T23:20:42.208Z,101459.31
2022-08-05T23:23:48.008Z,101471.91
2022-08-05T23:26:50.987Z,101486.69
2022-08-05T23:29:54.112Z,101475.03
2022-08-05T23:32:57.699Z,101483.03
2022-08-05T23:36:02.175Z,101492.44
2022-08-05T23:39:07.188Z,101506.84
2022-08-05T23:42:14.468Z,101503.50
2022-08-05T23:45:18.146Z,101514.16
2022-08-05T23:48:22.808Z,101528.44
2022-08-05T23:51:54.042Z,101525.59
2022-08-05T23:55:01.905Z,101520.84
2022-08-05T23:58:31.651Z,101514.16
